createdAt,value
2017-08-26T00:00:56.857Z,99.90
2017-08-26T00:03:25.216Z,99.90
2017-08-26T00:05:53.532Z,99.90
2017-08-26T00:08:22.116Z,99.90
2017-08-26T00:10:50.358Z,99.90
2017-08-26T00:13:18.748Z,99.90
2017-08-26T00:15:47.114Z,99.90
2017-08-26T00:18:15.538Z,99.90
2017-08-26T00:20:44.395Z,99.90
2017-08-26T00:23:13.922Z,99.90
2017-08-26T00:25:42.197Z,99.90
2017-08-26T00:28:10.549Z,99.90
2017-08-26T00:30:40.059Z,99.90
2017-08-26T00:33:09.281Z,99.90
2017-08-26T00:35:39.130Z,99.90
2017-08-26T00:38:07.868Z,99.90
2017-08-26T00:40:36.839Z,99.90
2017-08-26T00:43:05.441Z,99.90
2017-08-26T00:45:33.675Z,99.90
2017-08-26T00:48:02.630Z,99.90
2017-08-26T00:50:31.063Z,99.90
2017-08-26T00:53:01.207Z,99.90
2017-08-26T00:55:29.521Z,99.90
2017-08-26T00:57:58.394Z,99.90
2017-08-26T01:00:26.961Z,99.90
2017-08-26T01:02:55.495Z,99.90
2017-08-26T01:05:24.446Z,99.90
2017-08-26T01:07:52.872Z,99.90
2017-08-26T01:10:21.285Z,99.90
2017-08-26T01:12:50.142Z,99.90
2017-08-26T01:15:18.783Z,99.90
2017-08-26T01:17:47.447Z,99.90
2017-08-26T01:20:16.110Z,99.90
2017-08-26T01:22:44.387Z,99.90
2017-08-26T01:25:13.406Z,99.90
2017-08-26T01:27:43.933Z,99.90
2017-08-26T01:30:12.813Z,99.90
2017-08-26T01:32:41.273Z,99.90
2017-08-26T01:35:10.812Z,99.90
2017-08-26T01:37:40.241Z,99.90
2017-08-26T01:40:08.730Z,99.90
2017-08-26T01:42:36.947Z,99.90
2017-08-26T01:45:05.273Z,99.90
2017-08-26T01:47:33.554Z,99.90
2017-08-26T01:50:02.211Z,99.90
2017-08-26T01:52:31.851Z,99.90
2017-08-26T01:55:00.319Z,99.90
2017-08-26T01:59:59.309Z,99.90
2017-08-26T02:02:27.598Z,99.90
2017-08-26T02:04:56.006Z,99.90
2017-08-26T02:07:25.048Z,99.90
2017-08-26T02:09:53.280Z,99.90
2017-08-26T02:12:29.099Z,99.90
2017-08-26T02:14:57.785Z,99.90
2017-08-26T02:17:26.238Z,99.90
2017-08-26T02:19:55.124Z,99.90
2017-08-26T02:22:24.151Z,99.90
2017-08-26T02:24:54.670Z,99.90
2017-08-26T02:27:22.986Z,99.90
2017-08-26T02:29:51.204Z,99.90
2017-08-26T02:32:20.219Z,99.90
2017-08-26T02:34:48.505Z,99.90
2017-08-26T02:37:16.877Z,99.90
2017-08-26T02:39:45.907Z,99.90
2017-08-26T02:42:14.250Z,99.90
2017-08-26T02:44:42.425Z,99.90
2017-08-26T02:47:11.313Z,99.90
2017-08-26T02:49:39.518Z,99.90
2017-08-26T02:52:07.877Z,99.90
2017-08-26T02:54:36.165Z,99.90
2017-08-26T02:57:04.410Z,99.90
2017-08-26T02:59:33.406Z,99.90
2017-08-26T03:02:02.390Z,99.90
2017-08-26T03:04:31.491Z,99.90
2017-08-26T03:06:59.919Z,99.90
2017-08-26T03:09:28.399Z,99.90
2017-08-26T03:11:56.669Z,99.90
2017-08-26T03:14:24.886Z,99.90
2017-08-26T03:16:53.320Z,99.90
2017-08-26T03:19:21.706Z,99.90
2017-08-26T03:21:49.924Z,99.90
2017-08-26T03:24:18.508Z,99.90
2017-08-26T03:26:47.575Z,99.90
2017-08-26T03:29:16.153Z,99.90
2017-08-26T03:31:44.514Z,99.90
2017-08-26T03:34:12.742Z,99.90
2017-08-26T03:36:41.035Z,99.90
2017-08-26T03:39:09.402Z,99.90
2017-08-26T03:41:37.740Z,99.90
2017-08-26T03:44:06.860Z,99.90
2017-08-26T03:46:35.997Z,99.90
2017-08-26T03:49:04.260Z,99.90
2017-08-26T03:51:32.659Z,99.90
2017-08-26T03:54:01.069Z,99.90
2017-08-26T03:56:37.078Z,99.90
2017-08-26T03:59:06.013Z,99.90
2017-08-26T04:01:34.299Z,99.90
2017-08-26T04:04:02.573Z,99.90
2017-08-26T04:06:30.898Z,99.90
2017-08-26T04:08:59.267Z,99.90
2017-08-26T04:11:27.700Z,99.90
2017-08-26T04:13:56.116Z,99.90
2017-08-26T04:16:24.369Z,99.90
2017-08-26T04:18:52.808Z,99.90
2017-08-26T04:21:21.447Z,99.90
2017-08-26T04:23:49.898Z,99.90
2017-08-26T04:26:18.313Z,99.90
2017-08-26T04:28:48.467Z,99.90
2017-08-26T04:31:17.198Z,99.90
2017-08-26T04:33:46.998Z,99.90
2017-08-26T04:36:15.371Z,99.90
2017-08-26T04:38:44.066Z,99.90
2017-08-26T04:41:12.377Z,99.90
2017-08-26T04:43:40.927Z,99.90
2017-08-26T04:46:09.475Z,99.90
2017-08-26T04:48:40.668Z,99.90
2017-08-26T04:51:09.264Z,99.90
2017-08-26T04:53:37.505Z,99.90
2017-08-26T04:56:06.205Z,99.90
2017-08-26T04:58:35.014Z,99.90
2017-08-26T05:01:03.540Z,99.90
2017-08-26T05:03:31.824Z,99.90
2017-08-26T05:05:59.996Z,99.90
2017-08-26T05:08:28.274Z,99.90
2017-08-26T05:10:56.495Z,99.90
2017-08-26T05:13:25.607Z,99.90
2017-08-26T05:15:53.917Z,99.90
2017-08-26T05:18:22.756Z,99.90
2017-08-26T05:20:51.040Z,99.90
2017-08-26T05:23:19.362Z,99.90
2017-08-26T05:25:47.591Z,99.90
2017-08-26T05:28:15.859Z,99.90
2017-08-26T05:30:44.104Z,99.90
2017-08-26T05:33:12.503Z,99.90
2017-08-26T05:35:40.762Z,99.90
2017-08-26T05:38:09.092Z,99.90
2017-08-26T05:40:37.438Z,99.90
2017-08-26T05:43:06.367Z,99.90
2017-08-26T05:45:34.615Z,99.90
2017-08-26T05:48:02.877Z,99.90
2017-08-26T05:50:31.131Z,99.90
2017-08-26T05:53:00.394Z,99.90
2017-08-26T05:55:28.603Z,99.90
2017-08-26T05:57:56.861Z,99.90
2017-08-26T06:00:25.161Z,99.90
2017-08-26T06:02:54.213Z,99.90
2017-08-26T06:05:23.117Z,99.90
2017-08-26T06:07:51.361Z,99.90
2017-08-26T06:10:19.628Z,99.90
2017-08-26T06:12:47.901Z,99.90
2017-08-26T06:15:16.209Z,99.90
2017-08-26T06:17:45.137Z,99.90
2017-08-26T06:20:14.039Z,99.90
2017-08-26T06:22:42.237Z,99.90
2017-08-26T06:25:10.510Z,99.90
2017-08-26T06:27:40.038Z,99.90
2017-08-26T06:30:08.398Z,99.90
2017-08-26T06:32:37.000Z,99.90
2017-08-26T06:35:05.272Z,99.90
2017-08-26T06:37:34.187Z,99.90
2017-08-26T06:40:02.388Z,99.90
2017-08-26T06:42:31.400Z,99.90
2017-08-26T06:44:59.697Z,99.90
2017-08-26T06:47:28.120Z,99.90
2017-08-26T06:49:56.363Z,99.90
2017-08-26T06:52:24.617Z,99.90
2017-08-26T06:54:52.941Z,99.90
2017-08-26T06:57:21.233Z,99.90
2017-08-26T06:59:49.451Z,99.90
2017-08-26T07:02:19.792Z,99.90
2017-08-26T07:04:48.039Z,99.90
2017-08-26T07:07:17.467Z,99.90
2017-08-26T07:09:45.647Z,99.90
2017-08-26T07:12:14.219Z,99.90
2017-08-26T07:14:42.428Z,99.90
2017-08-26T07:17:11.160Z,99.90
2017-08-26T07:19:40.277Z,99.90
2017-08-26T07:22:08.492Z,99.90
2017-08-26T07:24:36.780Z,99.90
2017-08-26T07:27:05.782Z,99.90
2017-08-26T07:29:34.124Z,99.90
2017-08-26T07:32:02.614Z,99.90
2017-08-26T07:34:31.224Z,99.90
2017-08-26T07:36:59.751Z,99.90
2017-08-26T07:39:27.953Z,99.90
2017-08-26T07:41:56.196Z,99.90
2017-08-26T07:44:25.079Z,99.90
2017-08-26T07:46:53.361Z,99.90
2017-08-26T07:49:21.741Z,99.90
2017-08-26T07:51:57.086Z,99.90
2017-08-26T07:54:25.311Z,99.90
2017-08-26T07:56:53.558Z,99.90
2017-08-26T07:59:21.780Z,99.90
2017-08-26T08:01:50.108Z,99.90
2017-08-26T08:04:18.870Z,99.90
2017-08-26T08:06:47.244Z,99.90
2017-08-26T08:09:15.462Z,99.90
2017-08-26T08:11:43.701Z,99.90
2017-08-26T08:14:12.294Z,99.90
2017-08-26T08:16:40.870Z,99.90
2017-08-26T08:19:09.913Z,99.90
2017-08-26T08:21:38.365Z,99.90
2017-08-26T08:24:07.220Z,99.90
2017-08-26T08:26:35.505Z,99.90
2017-08-26T08:29:04.613Z,99.90
2017-08-26T08:31:35.794Z,99.90
2017-08-26T08:34:03.949Z,99.90
2017-08-26T08:36:32.145Z,99.90
2017-08-26T08:39:00.502Z,99.90
2017-08-26T08:41:29.487Z,99.90
2017-08-26T08:43:58.073Z,99.90
2017-08-26T08:46:26.270Z,99.90
2017-08-26T08:48:54.546Z,99.90
2017-08-26T08:51:23.727Z,99.90
2017-08-26T08:53:53.012Z,99.90
2017-08-26T08:56:21.278Z,99.90
2017-08-26T08:58:49.461Z,99.90
2017-08-26T09:01:17.688Z,99.90
2017-08-26T09:03:47.262Z,99.90
2017-08-26T09:06:15.597Z,99.90
2017-08-26T09:08:43.758Z,99.90
2017-08-26T09:11:11.928Z,99.90
2017-08-26T09:13:40.144Z,99.90
2017-08-26T09:16:14.436Z,99.90
2017-08-26T09:18:43.657Z,99.90
2017-08-26T09:21:13.802Z,99.90
2017-08-26T09:23:42.001Z,99.90
2017-08-26T09:26:10.406Z,99.90
2017-08-26T09:28:38.604Z,99.90
2017-08-26T09:31:07.699Z,99.90
2017-08-26T09:33:36.032Z,99.90
2017-08-26T09:36:04.880Z,98.90
2017-08-26T09:38:33.855Z,99.30
2017-08-26T09:41:02.174Z,98.80
2017-08-26T09:43:30.538Z,98.70
2017-08-26T09:45:59.008Z,97.50
2017-08-26T09:48:27.398Z,96.70
2017-08-26T09:50:55.643Z,96.10
2017-08-26T09:53:23.934Z,95.90
2017-08-26T09:55:52.864Z,95.60
2017-08-26T09:58:21.857Z,95.40
2017-08-26T10:00:50.146Z,95.10
2017-08-26T10:03:18.493Z,94.80
2017-08-26T10:05:46.776Z,93.70
2017-08-26T10:08:15.027Z,92.30
2017-08-26T10:10:43.713Z,91.70
2017-08-26T10:13:11.927Z,91.00
2017-08-26T10:15:40.196Z,90.80
2017-08-26T10:18:08.777Z,90.60
2017-08-26T10:20:37.924Z,90.30
2017-08-26T10:23:07.007Z,90.00
2017-08-26T10:25:35.157Z,88.60
2017-08-26T10:28:03.347Z,89.30
2017-08-26T10:30:31.505Z,88.80
2017-08-26T10:32:59.741Z,90.60
2017-08-26T10:35:27.935Z,88.90
2017-08-26T10:37:56.454Z,88.70
2017-08-26T10:40:24.993Z,87.40
2017-08-26T10:42:53.706Z,88.50
2017-08-26T10:45:22.900Z,87.80
2017-08-26T10:47:51.404Z,85.40
2017-08-26T10:50:19.667Z,84.00
2017-08-26T10:52:47.941Z,83.00
2017-08-26T10:55:16.484Z,82.30
2017-08-26T10:57:44.672Z,84.20
2017-08-26T11:00:12.983Z,85.10
2017-08-26T11:02:41.183Z,85.00
2017-08-26T11:05:09.366Z,85.40
2017-08-26T11:07:38.019Z,86.20
2017-08-26T11:10:06.204Z,84.00
2017-08-26T11:12:34.656Z,82.70
2017-08-26T11:15:02.912Z,82.70
2017-08-26T11:17:31.125Z,83.50
2017-08-26T11:19:59.574Z,80.80
2017-08-26T11:22:27.849Z,80.00
2017-08-26T11:24:56.238Z,80.70
2017-08-26T11:27:24.552Z,78.10
2017-08-26T11:29:52.841Z,79.40
2017-08-26T11:32:21.045Z,80.10
2017-08-26T11:34:49.266Z,79.80
2017-08-26T11:37:17.542Z,80.50
2017-08-26T11:39:45.742Z,81.40
2017-08-26T11:42:13.980Z,80.00
2017-08-26T11:44:42.297Z,79.20
2017-08-26T11:47:10.552Z,75.80
2017-08-26T11:49:38.768Z,76.10
2017-08-26T11:52:06.948Z,74.50
2017-08-26T11:54:35.123Z,75.00
2017-08-26T11:57:03.282Z,75.50
2017-08-26T11:59:31.607Z,75.50
2017-08-26T12:01:59.772Z,74.90
2017-08-26T12:04:28.579Z,74.60
2017-08-26T12:06:57.164Z,75.80
2017-08-26T12:09:25.452Z,76.90
2017-08-26T12:11:54.226Z,77.00
2017-08-26T12:14:22.429Z,79.60
2017-08-26T12:16:50.651Z,80.90
2017-08-26T12:19:18.865Z,80.70
2017-08-26T12:21:48.103Z,83.40
2017-08-26T12:24:16.396Z,83.80
2017-08-26T12:26:44.682Z,82.80
2017-08-26T12:29:14.746Z,83.30
2017-08-26T12:31:44.114Z,84.90
2017-08-26T12:34:13.012Z,82.00
2017-08-26T12:36:42.975Z,82.60
2017-08-26T12:39:12.489Z,82.40
2017-08-26T12:41:41.634Z,81.90
2017-08-26T12:44:10.080Z,81.10
2017-08-26T12:46:39.163Z,81.40
2017-08-26T12:49:07.493Z,82.10
2017-08-26T12:51:36.160Z,82.90
2017-08-26T12:54:05.860Z,81.50
2017-08-26T12:56:34.658Z,81.80
2017-08-26T12:59:03.575Z,82.10
2017-08-26T13:01:31.882Z,81.90
2017-08-26T13:04:00.066Z,80.90
2017-08-26T13:06:28.356Z,80.80
2017-08-26T13:08:57.195Z,80.60
2017-08-26T13:11:26.295Z,79.30
2017-08-26T13:13:54.887Z,78.60
2017-08-26T13:16:23.114Z,78.40
2017-08-26T13:18:51.428Z,77.60
2017-08-26T13:21:19.702Z,78.10
2017-08-26T13:23:47.869Z,77.60
2017-08-26T13:26:16.169Z,76.60
2017-08-26T13:28:44.591Z,76.10
2017-08-26T13:31:12.826Z,74.30
2017-08-26T13:33:41.108Z,74.30
2017-08-26T13:36:09.407Z,74.50
2017-08-26T13:38:37.606Z,76.20
2017-08-26T13:41:05.923Z,76.60
2017-08-26T13:43:34.136Z,77.80
2017-08-26T13:46:02.357Z,77.20
2017-08-26T13:48:30.499Z,77.40
2017-08-26T13:50:58.708Z,77.30
2017-08-26T13:53:26.875Z,78.50
2017-08-26T13:55:55.049Z,76.90
2017-08-26T13:58:23.195Z,76.00
2017-08-26T14:00:51.391Z,76.80
2017-08-26T14:03:20.036Z,76.50
2017-08-26T14:05:48.213Z,75.50
2017-08-26T14:08:17.120Z,76.40
2017-08-26T14:10:45.276Z,76.60
2017-08-26T14:13:13.445Z,75.80
2017-08-26T14:15:41.591Z,75.40
2017-08-26T14:18:09.758Z,74.80
2017-08-26T14:20:37.893Z,75.70
2017-08-26T14:23:06.079Z,74.70
2017-08-26T14:25:34.275Z,75.40
2017-08-26T14:28:02.535Z,75.70
2017-08-26T14:30:30.734Z,76.60
2017-08-26T14:32:58.903Z,77.00
2017-08-26T14:35:27.125Z,76.90
2017-08-26T14:37:55.293Z,76.60
2017-08-26T14:40:23.833Z,77.90
2017-08-26T14:42:52.078Z,77.90
2017-08-26T14:45:20.287Z,79.20
2017-08-26T14:47:49.079Z,80.30
2017-08-26T14:50:17.818Z,81.20
2017-08-26T14:52:46.185Z,82.00
2017-08-26T14:55:14.352Z,83.10
2017-08-26T14:57:42.544Z,83.50
2017-08-26T15:00:10.755Z,84.40
2017-08-26T15:02:38.977Z,84.20
2017-08-26T15:05:07.171Z,84.90
2017-08-26T15:07:36.206Z,86.30
2017-08-26T15:10:04.339Z,86.40
2017-08-26T15:12:32.510Z,86.40
2017-08-26T15:15:00.659Z,85.40
2017-08-26T15:17:29.653Z,86.70
2017-08-26T15:19:58.142Z,87.70
2017-08-26T15:22:26.353Z,88.20
2017-08-26T15:24:54.624Z,88.70
2017-08-26T15:27:22.933Z,88.90
2017-08-26T15:29:51.167Z,88.90
2017-08-26T15:32:19.390Z,89.80
2017-08-26T15:34:52.687Z,88.60
2017-08-26T15:37:22.573Z,89.00
2017-08-26T15:39:50.799Z,89.60
2017-08-26T15:42:19.037Z,89.80
2017-08-26T15:44:47.273Z,90.10
2017-08-26T15:47:15.510Z,90.40
2017-08-26T15:49:44.494Z,90.60
2017-08-26T15:52:12.687Z,90.70
2017-08-26T15:54:40.926Z,90.90
2017-08-26T15:57:09.148Z,90.80
2017-08-26T15:59:37.418Z,91.00
2017-08-26T16:02:05.829Z,91.10
2017-08-26T16:04:35.048Z,91.00
2017-08-26T16:07:03.734Z,90.90
2017-08-26T16:09:31.977Z,91.30
2017-08-26T16:12:00.297Z,91.60
2017-08-26T16:14:28.706Z,91.70
2017-08-26T16:16:56.968Z,92.00
2017-08-26T16:19:25.148Z,92.10
2017-08-26T16:21:53.322Z,92.50
2017-08-26T16:24:21.435Z,92.40
2017-08-26T16:26:49.661Z,92.60
2017-08-26T16:29:17.861Z,92.90
2017-08-26T16:31:46.066Z,93.00
2017-08-26T16:34:14.266Z,93.00
2017-08-26T16:36:42.505Z,93.40
2017-08-26T16:39:11.683Z,93.70
2017-08-26T16:41:39.919Z,93.60
2017-08-26T16:44:08.954Z,96.50
2017-08-26T16:46:37.228Z,96.50
2017-08-26T16:49:05.929Z,97.60
2017-08-26T16:51:34.089Z,98.20
2017-08-26T16:54:02.495Z,98.80
2017-08-26T16:56:30.830Z,98.80
2017-08-26T16:58:59.044Z,99.30
2017-08-26T17:01:27.250Z,99.90
2017-08-26T17:03:55.497Z,99.90
2017-08-26T17:06:23.870Z,99.90
2017-08-26T17:08:52.428Z,99.90
2017-08-26T17:11:20.898Z,99.90
2017-08-26T17:13:49.171Z,99.90
2017-08-26T17:16:17.371Z,99.90
2017-08-26T17:18:45.865Z,99.90
2017-08-26T17:21:14.276Z,99.90
2017-08-26T17:23:42.452Z,99.90
2017-08-26T17:26:10.894Z,99.90
2017-08-26T17:28:39.924Z,99.90
2017-08-26T17:31:08.072Z,99.90
2017-08-26T17:33:36.343Z,99.90
2017-08-26T17:36:05.420Z,99.90
2017-08-26T17:38:33.817Z,99.90
2017-08-26T17:41:02.088Z,99.90
2017-08-26T17:43:30.505Z,99.90
2017-08-26T17:45:58.736Z,99.90
2017-08-26T17:48:26.896Z,99.90
2017-08-26T17:50:55.106Z,99.90
2017-08-26T17:53:23.608Z,99.90
2017-08-26T17:55:52.507Z,99.90
2017-08-26T17:58:21.611Z,99.90
2017-08-26T18:00:49.865Z,99.90
2017-08-26T18:03:18.054Z,99.90
2017-08-26T18:05:46.235Z,99.90
2017-08-26T18:08:14.447Z,99.90
2017-08-26T18:10:42.622Z,99.90
2017-08-26T18:13:10.906Z,99.90
2017-08-26T18:15:47.234Z,99.90
2017-08-26T18:18:18.480Z,99.90
2017-08-26T18:20:51.372Z,99.90
2017-08-26T18:23:21.848Z,99.90
2017-08-26T18:25:50.053Z,99.90
2017-08-26T18:28:18.369Z,99.90
2017-08-26T18:30:46.555Z,99.90
2017-08-26T18:33:14.807Z,99.90
2017-08-26T18:35:42.962Z,99.90
2017-08-26T18:38:11.130Z,99.90
2017-08-26T18:40:39.328Z,99.90
2017-08-26T18:43:07.550Z,99.90
2017-08-26T18:45:35.774Z,99.90
2017-08-26T18:48:03.897Z,99.90
2017-08-26T18:50:32.187Z,99.90
2017-08-26T18:53:00.325Z,99.90
2017-08-26T18:55:28.682Z,99.90
2017-08-26T18:57:56.893Z,99.90
2017-08-26T19:00:25.080Z,99.90
2017-08-26T19:02:53.240Z,99.90
2017-08-26T19:05:21.426Z,99.90
2017-08-26T19:07:51.132Z,99.90
2017-08-26T19:10:20.420Z,99.90
2017-08-26T19:12:48.787Z,99.90
2017-08-26T19:15:17.014Z,99.90
2017-08-26T19:17:45.250Z,99.90
2017-08-26T19:20:13.521Z,99.90
2017-08-26T19:22:42.006Z,99.90
2017-08-26T19:25:10.177Z,99.90
2017-08-26T19:27:38.318Z,99.90
2017-08-26T19:30:06.527Z,99.90
2017-08-26T19:32:34.726Z,99.90
2017-08-26T19:35:03.056Z,99.90
2017-08-26T19:37:32.033Z,99.90
2017-08-26T19:40:00.392Z,99.90
2017-08-26T19:42:28.664Z,99.90
2017-08-26T19:44:56.899Z,99.90
2017-08-26T19:47:25.158Z,99.90
2017-08-26T19:49:53.393Z,99.90
2017-08-26T19:52:21.599Z,99.90
2017-08-26T19:54:49.772Z,99.90
2017-08-26T19:57:18.011Z,99.90
2017-08-26T19:59:46.660Z,99.90
2017-08-26T20:02:14.813Z,99.90
2017-08-26T20:04:43.070Z,99.90
2017-08-26T20:07:11.216Z,99.90
2017-08-26T20:09:39.423Z,99.90
2017-08-26T20:12:07.719Z,99.90
2017-08-26T20:14:35.960Z,99.90
2017-08-26T20:17:04.118Z,99.90
2017-08-26T20:19:32.355Z,99.90
2017-08-26T20:22:00.516Z,99.90
2017-08-26T20:24:28.769Z,99.90
2017-08-26T20:26:56.957Z,99.90
2017-08-26T20:29:25.128Z,99.90
2017-08-26T20:31:53.371Z,99.90
2017-08-26T20:34:21.579Z,99.90
2017-08-26T20:36:49.817Z,99.90
2017-08-26T20:39:18.806Z,99.90
2017-08-26T20:41:47.558Z,99.90
2017-08-26T20:44:15.710Z,99.90
2017-08-26T20:46:44.666Z,99.90
2017-08-26T20:49:12.846Z,99.90
2017-08-26T20:51:41.103Z,99.90
2017-08-26T20:54:09.283Z,99.90
2017-08-26T20:56:37.563Z,99.90
2017-08-26T20:59:05.788Z,99.90
2017-08-26T21:01:33.940Z,99.90
2017-08-26T21:04:02.534Z,99.90
2017-08-26T21:06:30.980Z,99.90
2017-08-26T21:08:59.295Z,99.90
2017-08-26T21:11:27.510Z,99.90
2017-08-26T21:13:55.729Z,99.90
2017-08-26T21:16:23.934Z,99.90
2017-08-26T21:18:52.109Z,99.90
2017-08-26T21:21:20.278Z,99.90
2017-08-26T21:23:48.515Z,99.90
2017-08-26T21:26:16.705Z,99.90
2017-08-26T21:28:45.001Z,99.90
2017-08-26T21:31:13.153Z,99.90
2017-08-26T21:33:41.353Z,99.90
2017-08-26T21:36:09.500Z,99.90
2017-08-26T21:38:37.752Z,99.90
2017-08-26T21:41:06.003Z,99.90
2017-08-26T21:43:34.155Z,99.90
2017-08-26T21:46:02.330Z,99.90
2017-08-26T21:48:30.536Z,99.90
2017-08-26T21:50:58.724Z,99.90
2017-08-26T21:53:26.868Z,99.90
2017-08-26T21:55:55.043Z,99.90
2017-08-26T21:58:23.194Z,99.90
2017-08-26T22:00:51.399Z,99.90
2017-08-26T22:03:19.567Z,99.90
2017-08-26T22:05:48.542Z,99.90
2017-08-26T22:08:16.667Z,99.90
2017-08-26T22:10:44.845Z,99.90
2017-08-26T22:13:13.221Z,99.90
2017-08-26T22:15:41.364Z,99.90
2017-08-26T22:18:09.585Z,99.90
2017-08-26T22:20:37.802Z,99.90
2017-08-26T22:23:06.071Z,99.90
2017-08-26T22:25:34.249Z,99.90
2017-08-26T22:28:02.432Z,99.90
2017-08-26T22:30:30.725Z,99.90
2017-08-26T22:33:00.649Z,99.90
2017-08-26T22:35:28.838Z,99.90
2017-08-26T22:37:57.054Z,99.90
2017-08-26T22:40:25.288Z,99.90
2017-08-26T22:42:53.461Z,99.90
2017-08-26T22:45:21.661Z,99.90
2017-08-26T22:47:49.839Z,99.90
2017-08-26T22:50:18.040Z,99.90
2017-08-26T22:52:46.218Z,99.90
2017-08-26T22:55:14.350Z,99.90
2017-08-26T22:57:42.478Z,99.90
2017-08-26T23:00:11.422Z,99.90
2017-08-26T23:02:39.576Z,99.90
2017-08-26T23:05:07.787Z,99.90
2017-08-26T23:07:36.048Z,99.90
2017-08-26T23:10:04.257Z,99.90
2017-08-26T23:12:32.469Z,99.90
2017-08-26T23:15:01.492Z,99.90
2017-08-26T23:17:30.777Z,99.90
2017-08-26T23:22:22.738Z,99.90
2017-08-26T23:24:50.869Z,99.90
2017-08-26T23:27:19.069Z,99.90
2017-08-26T23:29:47.505Z,99.90
2017-08-26T23:32:15.776Z,99.90
2017-08-26T23:34:44.976Z,99.90
2017-08-26T23:37:14.075Z,99.90
2017-08-26T23:39:42.331Z,99.90
2017-08-26T23:42:10.660Z,99.90
2017-08-26T23:44:39.085Z,99.90
2017-08-26T23:47:07.315Z,99.90
2017-08-26T23:49:35.562Z,99.90
2017-08-26T23:52:04.423Z,99.90
2017-08-26T23:54:33.165Z,99.90
2017-08-26T23:57:02.005Z,99.90
2017-08-26T23:59:30.465Z,99.90
